Ana Sayfa
METAR-TAF:

METAR-TAF

Havaalanları :

Cebelitarık Havalimanı

Cebelitarık, Cebelitarık

Enlem: 36-09N, Boylam: 005-21W, yükseklik: 5 m

Güncel hava durumu gözlemi

Rapor saat 02:50 UTC de 35 dakika önce yapıldı.
Rüzgar doğu/kuzeydoğudan 22 kt
Sıcaklık 23°C
Nem 94%
Basınç 1022 hPa
Görüş mesafesi 10 km veya daha fazla

METAR: LXGB 260250Z AUTO 06022KT 9999 // FEW014/// BKN021/// BKN031/// 23/22 Q1022

Saat: 05:25 (03:25 UTC)

Tahmin

Rapor saat 13:20 UTC de 14 saat ve 5 dakika önce yapıldı.
Ayın 25'si saat 15 UTC'den ayın 25'si saat 22 UTC'ye kadar geçerli Tahmin
Rüzgar doğu/kuzeydoğudan 15 kt
Görüş mesafesi 10 km veya daha fazla
1200 ft yükseklikte az bulutlu
Olasılık 40% :
Geçici
ayın 25'si saat 15 UTC'den ayın 25'si saat 21 UTC'ye kadar
Rüzgar doğudan 15 kt ve 25 kt'a kadar ani rüzgarlar

TAF: LXGB 251320Z 2515/2522 07015KT 9999 FEW012 PROB40 TEMPO 2515/2521 09015G25KT 520001

4.000'den fazla havaalanı için hava durumu gözlemleri ve tahminleri (METAR ve TAF raporları).

Kullanılabilir istasyonlar harita üzerinde sarı ve kırmızı noktalarla gösterilir.

İstasyonun adını görmek için fareyi noktanın üzerinde gezdirin.

Sonrasında hava gözlem ve tahminlerini görmek için tıklayın.

Haritayı değiştirmek için: yaklaştırmak için siyah artı işaretli yeşil düğmeye ve uzaklaştırmak için de eksi işaretli düğmeye hızla tıklayın; bitişik haritalar için yeşil okları kullanın.


METAR-TAF: